This is the latest recevied weather packets stored in our database for station/object SP4LIN-15. If no packets are shown the sender has not sent any weather packets the latest 10 day(s).
| Time | Temp. | Humidity | Pressure | Rain* | Wind** | Luminosity | Snow |
|---|---|---|---|---|---|---|---|
| 1777997343 | 8.89° C | 82% | 1001.9 hPa | 0.51 mm | - | - | - |
| 1777996444 | 8.89° C | 79% | 1002 hPa | 0.51 mm | - | - | - |
| 1777995544 | 9.44° C | 76% | 1002.1 hPa | 0.51 mm | - | - | - |
| 1777994644 | 10.56° C | 72% | 1002.2 hPa | 0 mm | - | - | - |
| 1777993744 | 12.22° C | 65% | 1002.2 hPa | 0 mm | - | - | - |
| 1777992844 | 13.33° C | 61% | 1002 hPa | 0 mm | - | - | - |
| 1777991944 | 14.44° C | 58% | 1001.9 hPa | 0 mm | - | - | - |
| 1777991044 | 15.56° C | 57% | 1002.1 hPa | 0 mm | - | - | - |
| 1777989244 | 15.56° C | 60% | 1002.2 hPa | 0 mm | - | - | - |
| 1777988344 | 15.56° C | 61% | 1002.1 hPa | 0 mm | - | - | - |
| 1777987444 | 15° C | 65% | 1002.2 hPa | 0 mm | - | - | - |
| 1777986544 | 14.44° C | 68% | 1002.3 hPa | 0 mm | - | - | - |
| 1777985644 | 14.44° C | 66% | 1002.4 hPa | 0 mm | - | - | - |
| 1777984744 | 15° C | 64% | 1002.3 hPa | 0 mm | - | - | - |
| 1777983844 | 15.56° C | 62% | 1002.2 hPa | 0 mm | - | - | - |
| 1777982944 | 17.78° C | 55% | 1002.3 hPa | 0 mm | - | - | - |
| 1777982044 | 18.89° C | 54% | 1002.1 hPa | 0 mm | - | - | - |
| 1777981144 | 21.11° C | 49% | 1002 hPa | 0 mm | - | - | - |
| 1777980244 | 22.22° C | 49% | 1002.3 hPa | 0 mm | - | - | - |
| 1777979344 | 21.67° C | 48% | 1002.3 hPa | 0 mm | - | - | - |
| 1777978444 | 21.67° C | 49% | 1002.1 hPa | 0 mm | - | - | - |
| 1777977544 | 21.67° C | 47% | 1002.4 hPa | 0 mm | - | - | - |
| 1777976644 | 22.78° C | 44% | 1002.5 hPa | 0 mm | - | - | - |
| 1777975744 | 24.44° C | 43% | 1002.7 hPa | 0 mm | - | - | - |
| 1777974844 | 26.67° C | 40% | 1002.6 hPa | 0 mm | - | - | - |
* Rain latest hour (hover to see other rain measurements)
** Current wind speed in m/s (hover to see current wind gust speed)